Somonauk, IL (60552)

1:35 PM CDT on September 29, 2016 (GMT -0500)
Rural--2.75 mi WSW Sandwich, IL | | Change Station

Elev 698 ft 41.62 °N, 88.65 °W | Updated 1 minute ago

Overcast
Overcast
65.2 °F
Feels Like 65.2 °F
N
9.0
Wind Variable Wind from NNW
Gusts 18.0 mph

Today
High -- | Low -- °F
--% Chance of Precip.
Yesterday
High -- | Low -- °F
Precip. -- in
Pressure 30.20 in
Visibility 5.0 miles
Clouds Mostly Cloudy 2100 ft
Mostly Cloudy 3200 ft
Overcast 4100 ft
Dew Point 59 °F
Humidity 80%
Rainfall 0.00 in
Snow Depth Not available.
6:50 AM 6:38 PM
Waning Crescent, 1% visible
SPECI KARR 291823Z 03016G22KT 5SM -RA BKN021 BKN032 OVC041 18/14 A3020 RMK AO2 RAB21 P0000 T01830139
Pressure 30.20 in
Visibility 5.0 miles
Clouds Mostly Cloudy 2100 ft
Mostly Cloudy 3200 ft
Overcast 4100 ft
Dew Point 59 °F
Humidity 80%
Rainfall 0.00 in
Snow Depth Not available.
6:50 AM 6:38 PM
Waning Crescent, 1% visible
SPECI KARR 291823Z 03016G22KT 5SM -RA BKN021 BKN032 OVC041 18/14 A3020 RMK AO2 RAB21 P0000 T01830139

10-Day Weather Forecast

Almanac

Astronomy

Sep. 29, 2016 Rise Set
Actual Time
Civil Twilight
Nautical Twilight
Astronomical Twilight
Moon
Length of Visible Light
Length of Day
Tomorrow will be .
, % of the Moon is Illuminated

Today's Extremes

State Highs State Lows

Community

WunderPhotos

Upload Photos

1,942,545 photos uploaded!

WunderBlog® & News

Nearby

Air Quality

  Air Quality AQ Index Pollutant
Not available.

Snow Depth

Station Depth Elevation

Earthquake Activity

City Distance Mag. Time & Date
Minimum magnitude displayed is 2.5.

Coastal Water Temperatures

Place Temperature

Stations

Nearby Weather Stations

Station Location Temp. Windchill Dew Point Humidity Wind Precip. Elev Updated Type
                   

Watches & Warnings

There are currently no watches in effect.